Time;durP1;ratioP1;P1;durP2;ratioP2;P2;SDS_P1;SDS_P2;PMS_P1;PMS_P2;Temp;Humidity;BMP_temperature;BMP_pressure;BME280_temperature;BME280_humidity;BME280_pressure;Samples;Min_cycle;Max_cycle;Signal;HPM_P1;HPM_P2
2021/06/27 00:01:17;;;;;;;1.17;1.07;;;18.60;99.90;;;;;;5008416;28;20179;-74
2021/06/27 00:03:43;;;;;;;0.43;0.30;;;18.60;99.90;;;;;;5008181;28;20172;-73
2021/06/27 00:06:09;;;;;;;0.43;0.30;;;18.60;99.90;;;;;;5008019;28;20259;-73
2021/06/27 00:08:35;;;;;;;0.73;0.47;;;18.50;99.90;;;;;;4993067;28;20176;-73
2021/06/27 00:11:00;;;;;;;0.80;0.67;;;18.50;99.90;;;;;;5008134;28;20647;-73
2021/06/27 00:13:29;;;;;;;0.47;0.40;;;18.50;99.90;;;;;;5008111;28;20172;-73
2021/06/27 00:15:55;;;;;;;2.20;0.60;;;18.40;99.90;;;;;;4991523;28;20212;-73
2021/06/27 00:18:22;;;;;;;0.30;0.30;;;18.30;99.90;;;;;;4991660;28;20176;-73
2021/06/27 00:20:49;;;;;;;0.70;0.47;;;18.30;99.90;;;;;;4991773;28;20560;-73
2021/06/27 00:23:15;;;;;;;0.90;0.67;;;18.30;99.90;;;;;;5007977;28;20188;-73
2021/06/27 00:25:41;;;;;;;0.60;0.60;;;18.40;99.90;;;;;;5007849;28;20283;-74
2021/06/27 00:28:07;;;;;;;0.20;0.20;;;18.30;99.90;;;;;;5007789;28;20275;-74
2021/06/27 00:30:32;;;;;;;0.47;0.27;;;18.40;99.90;;;;;;4991661;28;20219;-73
2021/06/27 00:32:58;;;;;;;0.47;0.37;;;18.40;99.90;;;;;;4991540;28;20189;-73
2021/06/27 00:35:24;;;;;;;0.33;0.27;;;18.40;99.90;;;;;;4991425;28;20282;-73
2021/06/27 00:37:50;;;;;;;0.77;0.30;;;18.30;99.90;;;;;;4991349;28;20176;-73
2021/06/27 00:40:17;;;;;;;0.77;0.40;;;18.20;99.90;;;;;;5007308;28;20267;-74
2021/06/27 00:42:43;;;;;;;0.40;0.40;;;18.20;99.90;;;;;;5007644;28;20180;-73
2021/06/27 00:45:10;;;;;;;0.70;0.30;;;18.20;99.90;;;;;;4975198;28;20262;-73
2021/06/27 00:47:37;;;;;;;0.50;0.40;;;18.20;99.90;;;;;;4991302;28;20258;-74
2021/06/27 00:50:07;;;;;;;0.23;0.23;;;18.30;99.90;;;;;;4991467;28;20172;-73
2021/06/27 00:52:32;;;;;;;0.87;0.40;;;18.30;99.90;;;;;;4991847;28;20684;-73
2021/06/27 00:54:58;;;;;;;1.00;0.50;;;18.20;99.90;;;;;;5007589;28;20207;-74
2021/06/27 00:57:23;;;;;;;0.93;0.60;;;18.20;99.90;;;;;;5007546;28;20283;-73
2021/06/27 00:59:49;;;;;;;0.77;0.40;;;18.20;99.90;;;;;;5007772;28;20187;-73
2021/06/27 01:02:14;;;;;;;1.23;0.63;;;18.10;99.90;;;;;;5007705;28;20259;-73
2021/06/27 01:04:40;;;;;;;1.07;0.30;;;18.00;99.90;;;;;;5007572;28;20308;-74
2021/06/27 01:07:06;;;;;;;0.20;0.20;;;18.00;99.90;;;;;;5007452;28;20207;-73
2021/06/27 01:09:31;;;;;;;0.70;0.60;;;17.90;99.90;;;;;;4974966;28;20690;-73
2021/06/27 01:11:57;;;;;;;0.60;0.37;;;18.00;99.90;;;;;;4991149;28;20230;-73
2021/06/27 01:14:23;;;;;;;0.37;0.37;;;18.00;99.90;;;;;;4991102;28;20183;-74
2021/06/27 01:16:48;;;;;;;0.70;0.40;;;18.10;99.90;;;;;;4991025;28;20176;-73
2021/06/27 01:19:14;;;;;;;0.50;0.50;;;18.10;99.90;;;;;;5007638;28;20223;-73
2021/06/27 01:21:40;;;;;;;0.30;0.30;;;18.00;99.90;;;;;;4991236;28;20172;-74
2021/06/27 01:24:06;;;;;;;0.60;0.47;;;18.00;99.90;;;;;;5007397;28;20211;-73
2021/06/27 01:26:31;;;;;;;1.10;0.90;;;18.00;99.90;;;;;;4990791;28;20216;-73
2021/06/27 01:28:58;;;;;;;0.20;0.20;;;18.00;99.90;;;;;;5007459;28;20181;-73
2021/06/27 01:31:25;;;;;;;0.50;0.23;;;18.00;99.90;;;;;;4991249;28;20199;-73
2021/06/27 01:33:50;;;;;;;0.60;0.60;;;17.90;99.90;;;;;;5007401;28;20188;-74
2021/06/27 01:36:16;;;;;;;0.83;0.40;;;17.90;99.90;;;;;;5020317;23;20706;-77
2021/06/27 01:38:41;;;;;;;0.50;0.30;;;17.90;99.90;;;;;;5031610;28;20175;-77
2021/06/27 01:41:07;;;;;;;0.43;0.40;;;17.90;99.90;;;;;;5015493;28;20171;-77
2021/06/27 01:43:33;;;;;;;1.00;0.73;;;17.80;99.90;;;;;;5032160;28;20698;-78
2021/06/27 01:46:02;;;;;;;0.70;0.37;;;17.80;99.90;;;;;;5031935;28;20202;-78
2021/06/27 01:48:29;;;;;;;0.77;0.77;;;17.80;99.90;;;;;;5031447;28;20276;-77
2021/06/27 01:50:56;;;;;;;0.97;0.73;;;17.80;99.90;;;;;;5015502;28;20220;-78
2021/06/27 01:53:23;;;;;;;0.70;0.50;;;17.80;99.90;;;;;;5035498;28;20177;-78
2021/06/27 01:56:04;;;;;;;0.50;0.30;;;17.80;99.90;;;;;;5035428;28;20198;-77
2021/06/27 01:58:30;;;;;;;0.87;0.40;;;17.80;99.90;;;;;;5050089;28;20163;-78
2021/06/27 02:00:55;;;;;;;0.63;0.50;;;17.80;99.90;;;;;;5019131;28;20550;-78
2021/06/27 02:03:21;;;;;;;0.43;0.40;;;17.70;99.90;;;;;;5018654;28;20179;-78
2021/06/27 02:05:46;;;;;;;0.30;0.30;;;17.70;99.90;;;;;;5018466;28;20199;-78
2021/06/27 02:08:12;;;;;;;0.40;0.40;;;17.70;99.90;;;;;;5051390;28;20208;-78
2021/06/27 02:10:38;;;;;;;1.23;0.40;;;17.60;99.90;;;;;;5052021;28;20171;-78
2021/06/27 02:13:03;;;;;;;1.00;0.30;;;17.60;99.90;;;;;;5034393;28;20179;-77
2021/06/27 02:15:29;;;;;;;0.60;0.60;;;17.60;99.90;;;;;;5018785;28;20224;-78
2021/06/27 02:18:18;;;;;;;0.30;0.30;;;17.60;99.90;;;;;;5034778;28;20178;-77
2021/06/27 02:20:44;;;;;;;0.40;0.40;;;17.60;99.90;;;;;;5035112;28;20597;-78
2021/06/27 02:23:09;;;;;;;0.60;0.53;;;17.60;99.90;;;;;;5035172;28;20182;-78
2021/06/27 02:25:35;;;;;;;0.53;0.40;;;17.60;99.90;;;;;;5051574;28;20197;-78
2021/06/27 02:28:00;;;;;;;0.40;0.40;;;17.60;99.90;;;;;;5034645;28;20676;-77
2021/06/27 02:30:26;;;;;;;0.47;0.30;;;17.50;99.90;;;;;;5018260;28;20808;-78
2021/06/27 02:32:51;;;;;;;0.40;0.40;;;17.50;99.90;;;;;;5051307;28;20661;-77
2021/06/27 02:35:17;;;;;;;0.20;0.20;;;17.50;99.90;;;;;;5034571;28;20705;-78
2021/06/27 02:37:43;;;;;;;0.63;0.30;;;17.50;99.90;;;;;;5017881;28;20553;-78
2021/06/27 02:40:10;;;;;;;0.40;0.40;;;17.50;99.90;;;;;;5034571;28;20182;-78
2021/06/27 02:42:36;;;;;;;0.43;0.40;;;17.40;99.90;;;;;;5017530;28;20185;-77
2021/06/27 02:45:02;;;;;;;0.40;0.30;;;17.40;99.90;;;;;;5034722;28;20175;-78
2021/06/27 02:47:28;;;;;;;0.53;0.50;;;17.40;99.90;;;;;;5051034;28;20210;-78
2021/06/27 02:49:53;;;;;;;0.37;0.30;;;17.30;99.90;;;;;;5018007;28;20171;-78
2021/06/27 02:52:19;;;;;;;0.50;0.50;;;17.30;99.90;;;;;;5034304;28;20197;-78
2021/06/27 02:54:44;;;;;;;0.23;0.20;;;17.20;99.90;;;;;;5034619;28;20182;-78
2021/06/27 02:57:10;;;;;;;0.80;0.63;;;17.20;99.90;;;;;;5033936;28;20285;-77
2021/06/27 02:59:35;;;;;;;0.23;0.23;;;17.20;99.90;;;;;;5050962;28;20171;-78
2021/06/27 03:02:01;;;;;;;0.50;0.40;;;17.10;99.90;;;;;;5033794;28;20186;-78
2021/06/27 03:04:27;;;;;;;0.50;0.50;;;17.10;99.90;;;;;;5034007;28;20187;-78
2021/06/27 03:06:52;;;;;;;0.40;0.40;;;17.10;99.90;;;;;;5017682;28;20210;-77
2021/06/27 03:09:18;;;;;;;0.50;0.50;;;17.10;99.90;;;;;;5017754;28;20559;-78
2021/06/27 03:11:44;;;;;;;0.70;0.70;;;17.00;99.90;;;;;;5017226;28;20175;-78
2021/06/27 03:14:10;;;;;;;0.73;0.53;;;17.00;99.90;;;;;;5033966;28;20209;-78
2021/06/27 03:16:35;;;;;;;0.47;0.47;;;17.00;99.90;;;;;;5017214;28;20194;-78
2021/06/27 03:19:01;;;;;;;0.30;0.30;;;17.00;99.90;;;;;;5034156;28;20577;-78
2021/06/27 03:21:26;;;;;;;0.30;0.30;;;17.00;99.90;;;;;;5033654;28;20198;-77
2021/06/27 03:23:52;;;;;;;0.30;0.30;;;17.00;99.90;;;;;;5050269;28;20197;-78
2021/06/27 03:26:17;;;;;;;0.40;0.30;;;17.00;99.90;;;;;;5033677;28;20206;-78
2021/06/27 03:28:46;;;;;;;0.67;0.30;;;16.90;99.90;;;;;;5034090;28;20174;-78
2021/06/27 03:31:11;;;;;;;0.60;0.60;;;16.90;99.90;;;;;;5017500;28;20729;-78
2021/06/27 03:33:37;;;;;;;0.37;0.27;;;16.90;99.90;;;;;;5050345;28;20206;-78
2021/06/27 03:36:03;;;;;;;0.90;0.47;;;16.90;99.90;;;;;;5016959;28;20214;-78
2021/06/27 03:38:38;;;;;;;0.60;0.60;;;16.90;99.90;;;;;;5034848;28;20258;-77
2021/06/27 03:41:04;;;;;;;0.40;0.40;;;16.90;99.90;;;;;;5018140;28;20167;-78
2021/06/27 03:43:29;;;;;;;0.50;0.30;;;17.00;99.90;;;;;;5033570;28;20175;-78
2021/06/27 03:45:55;;;;;;;0.87;0.50;;;17.00;99.90;;;;;;5049921;28;20198;-78
2021/06/27 03:48:20;;;;;;;0.20;0.20;;;17.00;99.90;;;;;;5032717;28;20203;-78
2021/06/27 03:50:46;;;;;;;0.90;0.30;;;16.90;99.90;;;;;;5033206;28;20642;-77
2021/06/27 03:53:11;;;;;;;0.40;0.40;;;17.00;99.90;;;;;;5034781;28;20230;-78
2021/06/27 03:55:37;;;;;;;0.80;0.50;;;17.00;99.90;;;;;;5033153;28;20199;-78
2021/06/27 03:58:02;;;;;;;0.77;0.50;;;17.00;99.90;;;;;;5049653;28;20646;-78
2021/06/27 04:00:28;;;;;;;0.70;0.70;;;17.00;99.90;;;;;;5032747;28;20711;-78
2021/06/27 04:02:54;;;;;;;0.53;0.53;;;17.00;99.90;;;;;;5033292;28;20646;-77
2021/06/27 04:05:19;;;;;;;0.37;0.37;;;17.10;99.90;;;;;;5016631;28;20493;-78
2021/06/27 04:07:45;;;;;;;0.57;0.40;;;17.10;99.90;;;;;;5049351;28;20673;-78
2021/06/27 04:10:11;;;;;;;0.30;0.30;;;17.20;99.90;;;;;;5033021;28;20700;-77
2021/06/27 04:12:37;;;;;;;0.87;0.60;;;17.10;99.90;;;;;;5016319;28;20174;-78
2021/06/27 04:15:04;;;;;;;0.50;0.50;;;17.20;99.90;;;;;;5015273;28;20530;-78
2021/06/27 04:17:30;;;;;;;0.30;0.20;;;17.30;99.90;;;;;;5032316;28;20587;-77
2021/06/27 04:19:56;;;;;;;0.53;0.40;;;17.30;99.90;;;;;;5032579;28;20185;-78
2021/06/27 04:22:22;;;;;;;0.80;0.80;;;17.40;99.90;;;;;;5016596;28;20185;-78
2021/06/27 04:24:47;;;;;;;0.20;0.20;;;17.40;99.90;;;;;;5033223;28;20186;-77
2021/06/27 04:27:13;;;;;;;0.60;0.40;;;17.50;99.90;;;;;;5032341;28;20820;-78
2021/06/27 04:29:38;;;;;;;0.37;0.37;;;17.50;99.90;;;;;;5032599;28;20545;-78
2021/06/27 04:32:04;;;;;;;0.97;0.80;;;17.60;99.90;;;;;;5032242;28;20551;-78
2021/06/27 04:34:30;;;;;;;0.33;0.33;;;17.60;99.90;;;;;;5034239;28;20182;-78
2021/06/27 04:36:56;;;;;;;0.40;0.33;;;17.70;99.90;;;;;;5048968;28;20203;-78
2021/06/27 04:39:21;;;;;;;0.90;0.70;;;17.70;99.90;;;;;;5032569;28;20194;-78
2021/06/27 04:41:48;;;;;;;0.40;0.27;;;17.70;99.90;;;;;;5016067;28;20183;-77
2021/06/27 04:44:13;;;;;;;0.30;0.30;;;17.80;99.90;;;;;;5016235;28;20224;-78
2021/06/27 04:46:39;;;;;;;0.53;0.40;;;17.80;99.90;;;;;;5048840;28;20203;-77
2021/06/27 04:49:07;;;;;;;0.20;0.20;;;17.90;99.90;;;;;;5016096;28;20198;-78
2021/06/27 04:51:34;;;;;;;1.17;0.57;;;17.90;99.90;;;;;;5032739;28;20167;-78
2021/06/27 04:53:59;;;;;;;0.93;0.47;;;18.00;99.90;;;;;;5032183;28;20634;-78
2021/06/27 04:56:25;;;;;;;0.57;0.40;;;18.10;99.90;;;;;;5032451;28;20202;-78
2021/06/27 04:58:50;;;;;;;0.50;0.40;;;18.20;99.90;;;;;;5032731;28;20163;-78
2021/06/27 05:01:16;;;;;;;0.70;0.40;;;18.20;99.90;;;;;;5049043;28;20179;-78
2021/06/27 05:03:41;;;;;;;0.40;0.40;;;18.30;99.90;;;;;;5048999;28;20185;-77
2021/06/27 05:06:07;;;;;;;0.70;0.40;;;18.30;99.90;;;;;;5016020;28;20616;-77
2021/06/27 05:08:32;;;;;;;0.53;0.50;;;18.30;99.90;;;;;;5032414;28;20549;-78
2021/06/27 05:10:58;;;;;;;0.70;0.50;;;18.50;99.90;;;;;;5015883;28;20209;-78
2021/06/27 05:13:24;;;;;;;0.50;0.50;;;18.60;99.90;;;;;;5032355;28;20179;-78
2021/06/27 05:15:50;;;;;;;1.10;0.40;;;18.70;99.90;;;;;;5032068;28;20273;-78
2021/06/27 05:18:15;;;;;;;0.40;0.33;;;18.80;99.90;;;;;;5015474;28;20214;-78
2021/06/27 05:20:41;;;;;;;2.30;1.20;;;18.90;99.90;;;;;;5049200;28;20183;-78
2021/06/27 05:23:06;;;;;;;1.77;0.70;;;19.10;99.90;;;;;;5049184;28;20182;-78
2021/06/27 05:25:32;;;;;;;1.20;0.50;;;19.20;99.90;;;;;;5016933;28;20210;-78
2021/06/27 05:27:59;;;;;;;0.40;0.40;;;19.30;99.90;;;;;;5035834;28;20223;-78
2021/06/27 05:30:25;;;;;;;0.90;0.63;;;19.50;99.90;;;;;;5020677;28;20179;-77
2021/06/27 05:32:50;;;;;;;0.67;0.50;;;19.70;99.90;;;;;;5035966;28;20550;-78
2021/06/27 05:35:16;;;;;;;0.57;0.47;;;19.80;99.90;;;;;;5035721;28;20688;-78
2021/06/27 05:37:41;;;;;;;0.67;0.53;;;19.90;99.90;;;;;;5035772;28;20175;-78
2021/06/27 05:40:07;;;;;;;1.43;0.60;;;20.10;99.90;;;;;;5036157;28;20719;-78
2021/06/27 05:42:33;;;;;;;0.77;0.57;;;20.30;99.90;;;;;;5035773;28;20183;-78
2021/06/27 05:44:59;;;;;;;0.97;0.40;;;20.40;99.90;;;;;;5018953;28;20241;-78
2021/06/27 05:47:24;;;;;;;1.67;0.70;;;20.60;99.90;;;;;;5051456;28;20247;-78
2021/06/27 05:49:50;;;;;;;1.00;0.67;;;20.80;99.90;;;;;;5019190;28;20662;-78
2021/06/27 05:52:15;;;;;;;0.60;0.40;;;20.80;99.90;;;;;;5018909;28;20174;-78
2021/06/27 05:54:41;;;;;;;1.13;0.50;;;20.90;99.90;;;;;;5035438;28;20544;-78
2021/06/27 05:57:06;;;;;;;0.77;0.40;;;21.00;99.90;;;;;;5018242;28;20270;-78
2021/06/27 05:59:32;;;;;;;1.57;0.40;;;21.00;99.90;;;;;;5035776;28;20175;-77
2021/06/27 06:01:58;;;;;;;0.90;0.53;;;21.10;99.90;;;;;;5035027;28;20697;-77
2021/06/27 06:04:23;;;;;;;1.40;0.50;;;21.20;99.90;;;;;;5033778;28;20297;-77
2021/06/27 06:06:49;;;;;;;0.67;0.30;;;21.50;99.90;;;;;;5033328;28;20198;-77
2021/06/27 06:09:14;;;;;;;1.00;0.53;;;21.90;99.90;;;;;;5033765;28;20191;-78
2021/06/27 06:11:40;;;;;;;0.97;0.50;;;22.10;99.90;;;;;;5050329;28;20167;-77
2021/06/27 06:14:05;;;;;;;1.17;0.57;;;22.20;99.90;;;;;;5033759;28;20262;-77
2021/06/27 06:16:31;;;;;;;0.97;0.60;;;22.40;99.90;;;;;;5033560;28;20202;-78
2021/06/27 06:18:57;;;;;;;0.93;0.63;;;22.60;99.90;;;;;;5035017;28;20283;-78
2021/06/27 06:21:22;;;;;;;1.67;0.70;;;22.80;99.90;;;;;;5034782;28;20182;-77
2021/06/27 06:23:48;;;;;;;0.67;0.50;;;23.30;99.90;;;;;;5034928;28;20205;-77
2021/06/27 06:26:13;;;;;;;2.10;0.77;;;23.50;99.90;;;;;;5049632;28;20198;-78
2021/06/27 06:28:39;;;;;;;1.33;0.70;;;23.20;99.90;;;;;;5032949;28;20187;-78
2021/06/27 06:31:04;;;;;;;1.07;0.40;;;22.80;99.90;;;;;;5042190;28;20249;-77
2021/06/27 06:33:30;;;;;;;3.07;0.90;;;22.60;99.90;;;;;;5044805;28;20193;-76
2021/06/27 06:35:55;;;;;;;2.07;0.60;;;22.40;99.90;;;;;;5024149;28;20210;-78
2021/06/27 06:38:21;;;;;;;0.80;0.47;;;22.40;99.90;;;;;;5009630;28;20171;-78
2021/06/27 06:40:47;;;;;;;1.77;0.50;;;22.30;99.90;;;;;;5013439;28;20668;-78
2021/06/27 06:43:12;;;;;;;0.77;0.53;;;22.30;99.90;;;;;;5006873;28;20704;-78
2021/06/27 06:45:38;;;;;;;0.60;0.60;;;22.20;99.90;;;;;;5018120;28;20259;-78
2021/06/27 06:48:04;;;;;;;0.50;0.40;;;22.00;99.90;;;;;;5018368;28;20199;-78
2021/06/27 06:50:29;;;;;;;2.70;0.50;;;22.00;99.90;;;;;;5018646;28;20201;-78
2021/06/27 06:52:55;;;;;;;0.97;0.77;;;21.90;99.90;;;;;;5035577;28;20678;-78
2021/06/27 06:55:21;;;;;;;0.47;0.47;;;21.90;99.90;;;;;;5034595;28;20697;-78
2021/06/27 06:57:47;;;;;;;0.83;0.40;;;21.80;99.90;;;;;;5018100;28;20179;-78
2021/06/27 07:00:13;;;;;;;0.87;0.70;;;21.70;99.90;;;;;;5017931;28;20262;-78
2021/06/27 07:02:39;;;;;;;0.67;0.50;;;21.70;99.90;;;;;;5001274;28;20179;-78
2021/06/27 07:05:06;;;;;;;0.77;0.30;;;21.70;99.90;;;;;;5017895;28;20186;-78
2021/06/27 07:07:33;;;;;;;0.63;0.40;;;21.60;99.90;;;;;;5001344;28;20305;-78
2021/06/27 07:09:59;;;;;;;0.50;0.40;;;21.50;99.90;;;;;;5034396;28;20210;-78
2021/06/27 07:12:24;;;;;;;0.70;0.37;;;21.50;99.90;;;;;;5034406;28;20257;-78
2021/06/27 07:14:50;;;;;;;0.90;0.50;;;21.40;99.90;;;;;;5018064;28;20182;-78
2021/06/27 07:17:15;;;;;;;1.23;0.50;;;21.40;99.90;;;;;;5000875;28;20211;-78
2021/06/27 07:19:41;;;;;;;1.00;0.37;;;21.50;99.90;;;;;;5018257;28;20269;-78
2021/06/27 07:22:06;;;;;;;0.77;0.50;;;21.50;99.90;;;;;;5049411;28;20182;-77
2021/06/27 07:24:32;;;;;;;0.33;0.30;;;21.40;99.90;;;;;;5020547;28;20182;-79
2021/06/27 07:26:58;;;;;;;1.00;0.60;;;21.50;99.90;;;;;;5020895;28;20218;-78
2021/06/27 07:29:23;;;;;;;0.20;0.20;;;21.60;99.90;;;;;;5053991;28;20177;-78
2021/06/27 07:31:49;;;;;;;0.30;0.30;;;21.90;99.90;;;;;;5037574;28;20249;-79
2021/06/27 07:34:14;;;;;;;0.80;0.50;;;22.10;99.90;;;;;;5021250;28;20210;-79
2021/06/27 07:36:41;;;;;;;0.80;0.50;;;22.30;99.90;;;;;;5009276;28;20210;-79
2021/06/27 07:39:06;;;;;;;1.03;0.63;;;22.50;99.90;;;;;;5027934;28;20187;-79
2021/06/27 07:41:32;;;;;;;0.70;0.60;;;22.80;99.90;;;;;;5007284;23;20627;-78
2021/06/27 07:43:57;;;;;;;0.80;0.40;;;23.10;99.90;;;;;;4994432;28;20228;-77
2021/06/27 07:46:23;;;;;;;0.27;0.27;;;23.30;99.90;;;;;;4996544;28;20187;-79
2021/06/27 07:48:48;;;;;;;1.10;0.50;;;23.30;99.90;;;;;;4977877;28;20204;-77
2021/06/27 07:51:14;;;;;;;0.37;0.37;;;23.30;99.90;;;;;;4980132;28;20901;-77
2021/06/27 07:53:39;;;;;;;1.20;0.60;;;23.60;99.90;;;;;;4985054;28;20667;-78
2021/06/27 07:56:05;;;;;;;1.10;0.47;;;23.70;99.90;;;;;;5000631;28;20168;-78
2021/06/27 07:58:30;;;;;;;0.97;0.50;;;23.80;99.90;;;;;;4987387;28;20549;-77
2021/06/27 08:00:56;;;;;;;0.60;0.40;;;23.90;99.90;;;;;;4970688;28;20204;-77
2021/06/27 08:03:21;;;;;;;0.50;0.40;;;24.00;99.90;;;;;;4993375;28;20218;-78
2021/06/27 08:05:47;;;;;;;0.67;0.50;;;24.20;99.90;;;;;;4993297;28;20176;-78
2021/06/27 08:08:14;;;;;;;0.80;0.53;;;24.30;99.90;;;;;;4992477;28;20695;-77
2021/06/27 08:10:41;;;;;;;0.37;0.33;;;24.30;99.90;;;;;;5009364;28;20192;-78
2021/06/27 08:13:06;;;;;;;0.43;0.30;;;24.30;99.90;;;;;;4996111;28;20199;-78
2021/06/27 08:15:32;;;;;;;0.50;0.30;;;24.30;99.90;;;;;;4995497;28;20706;-76
2021/06/27 08:17:57;;;;;;;1.27;0.70;;;24.50;99.90;;;;;;4993671;28;20651;-77
2021/06/27 08:20:23;;;;;;;1.13;0.70;;;24.50;99.90;;;;;;5010438;28;20575;-77
2021/06/27 08:22:49;;;;;;;0.80;0.50;;;24.60;99.90;;;;;;5010076;28;20180;-77
2021/06/27 08:25:15;;;;;;;1.10;0.37;;;24.60;99.90;;;;;;5010185;28;20639;-77
2021/06/27 08:27:40;;;;;;;1.77;0.67;;;24.70;99.90;;;;;;5010230;28;20227;-77
2021/06/27 08:30:08;;;;;;;0.87;0.50;;;24.80;99.90;;;;;;4994522;28;20176;-78
2021/06/27 08:32:34;;;;;;;0.60;0.60;;;24.90;99.90;;;;;;4997206;28;20181;-78
2021/06/27 08:34:59;;;;;;;0.53;0.40;;;25.00;99.90;;;;;;5013712;28;20749;-79
2021/06/27 08:37:25;;;;;;;1.03;0.60;;;25.10;99.90;;;;;;4994883;28;20632;-77
2021/06/27 08:39:51;;;;;;;0.73;0.57;;;25.10;99.90;;;;;;4992667;28;20283;-78
2021/06/27 08:42:20;;;;;;;1.45;0.50;;;25.10;99.90;;;;;;5008868;28;20199;-77
2021/06/27 08:44:45;;;;;;;0.80;0.50;;;25.20;99.90;;;;;;5008453;28;20206;-77
2021/06/27 08:47:15;;;;;;;1.13;0.52;;;25.20;99.90;;;;;;4991665;28;20263;-77
2021/06/27 08:49:40;;;;;;;0.80;0.57;;;25.40;99.90;;;;;;4993049;28;20331;-78
2021/06/27 08:52:07;;;;;;;0.65;0.50;;;25.50;99.90;;;;;;4991826;28;20622;-77
2021/06/27 08:54:33;;;;;;;0.88;0.40;;;25.40;99.90;;;;;;4993168;28;20195;-77
2021/06/27 08:56:59;;;;;;;2.07;0.67;;;25.40;99.90;;;;;;5008072;28;20686;-78
2021/06/27 08:59:24;;;;;;;0.37;0.30;;;25.20;99.90;;;;;;5008703;28;20176;-78
2021/06/27 09:01:50;;;;;;;0.43;0.20;;;25.10;99.90;;;;;;5012256;28;20206;-76
2021/06/27 09:04:16;;;;;;;0.52;0.40;;;25.10;99.90;;;;;;4995906;28;20275;-77
2021/06/27 09:06:41;;;;;;;1.23;0.47;;;25.30;99.90;;;;;;5013388;28;20208;-77
2021/06/27 09:09:20;;;;;;;0.70;0.40;;;25.40;99.90;;;;;;4998092;28;20267;-77
2021/06/27 09:12:05;;;;;;;0.53;0.40;;;25.50;99.90;;;;;;4997879;28;20200;-77
2021/06/27 09:14:35;;;;;;;0.60;0.30;;;25.60;99.90;;;;;;5013220;28;20177;-77
2021/06/27 09:17:10;;;;;;;0.73;0.50;;;25.60;99.90;;;;;;5011746;28;20554;-78
2021/06/27 09:19:51;;;;;;;0.80;0.80;;;25.50;99.90;;;;;;4996807;28;20176;-79
2021/06/27 09:22:17;;;;;;;1.33;0.45;;;25.60;99.90;;;;;;4998230;28;20175;-77
2021/06/27 09:24:45;;;;;;;0.98;0.60;;;25.60;99.90;;;;;;5013524;28;20263;-79
2021/06/27 09:27:24;;;;;;;0.70;0.40;;;25.80;99.90;;;;;;5012951;28;20711;-82
2021/06/27 09:29:50;;;;;;;0.80;0.40;;;26.00;99.90;;;;;;4996659;28;20241;-77
2021/06/27 09:32:20;;;;;;;0.70;0.40;;;26.10;99.90;;;;;;5013162;28;20212;-78
2021/06/27 09:34:46;;;;;;;0.63;0.40;;;26.20;99.90;;;;;;4985724;28;20172;-77
2021/06/27 09:37:13;;;;;;;0.50;0.40;;;26.20;99.90;;;;;;4971713;28;20184;-77
2021/06/27 09:39:59;;;;;;;0.32;0.22;;;26.10;99.90;;;;;;5000078;28;20547;-77
2021/06/27 09:42:25;;;;;;;1.08;0.50;;;26.20;99.90;;;;;;5006536;28;20231;-77
2021/06/27 09:45:04;;;;;;;0.60;0.40;;;26.20;99.90;;;;;;5013096;28;20307;-77
2021/06/27 09:47:30;;;;;;;0.55;0.45;;;26.30;99.90;;;;;;4998411;28;20211;-78
2021/06/27 09:49:56;;;;;;;0.75;0.50;;;26.30;99.90;;;;;;5015581;28;20176;-79
2021/06/27 09:52:35;;;;;;;0.50;0.30;;;26.40;99.90;;;;;;4999136;28;20200;-78
2021/06/27 09:55:13;;;;;;;1.02;0.50;;;26.50;99.90;;;;;;4998863;28;20195;-78
2021/06/27 09:57:39;;;;;;;0.85;0.40;;;26.50;99.90;;;;;;4999306;28;20334;-78
2021/06/27 10:00:30;;;;;;;0.43;0.30;;;26.50;99.90;;;;;;5016697;28;20319;-79
2021/06/27 10:03:02;;;;;;;0.30;0.30;;;26.40;99.90;;;;;;5013466;28;20220;-79
2021/06/27 10:05:28;;;;;;;0.82;0.52;;;26.50;99.90;;;;;;5016849;28;20177;-80
2021/06/27 10:07:55;;;;;;;0.63;0.30;;;26.50;99.90;;;;;;5000415;28;20599;-79
2021/06/27 10:10:21;;;;;;;0.57;0.40;;;26.40;99.90;;;;;;5017374;28;20192;-80
2021/06/27 10:12:46;;;;;;;0.45;0.45;;;26.50;99.90;;;;;;5015632;28;20181;-78
2021/06/27 10:15:15;;;;;;;0.68;0.50;;;26.60;99.90;;;;;;5016412;28;20226;-78
2021/06/27 10:17:41;;;;;;;1.98;0.60;;;26.60;99.90;;;;;;5000059;28;20215;-79
2021/06/27 10:20:11;;;;;;;0.60;0.50;;;26.80;99.90;;;;;;5017116;28;20180;-78
2021/06/27 10:22:37;;;;;;;1.00;0.70;;;26.90;99.90;;;;;;5016729;28;20180;-80
2021/06/27 10:25:05;;;;;;;1.70;1.10;;;27.00;99.90;;;;;;5016499;28;20181;-79
2021/06/27 10:27:32;;;;;;;0.47;0.35;;;26.90;99.90;;;;;;5015947;28;20250;-78
2021/06/27 10:29:58;;;;;;;0.55;0.50;;;26.80;99.90;;;;;;5005310;28;20181;-78
2021/06/27 10:32:23;;;;;;;0.85;0.47;;;26.80;99.90;;;;;;4995506;28;20258;-79
2021/06/27 10:34:49;;;;;;;1.13;0.50;;;26.80;99.90;;;;;;5033123;28;20180;-79
2021/06/27 10:37:20;;;;;;;1.02;0.40;;;27.00;99.90;;;;;;5020562;28;20271;-79
2021/06/27 10:39:59;;;;;;;0.85;0.47;;;27.20;99.90;;;;;;5004340;28;20183;-79
2021/06/27 10:42:50;;;;;;;0.73;0.30;;;27.10;99.90;;;;;;5019999;28;20251;-79
2021/06/27 10:45:19;;;;;;;1.50;0.70;;;27.10;99.90;;;;;;5019337;28;20195;-79
2021/06/27 10:47:44;;;;;;;0.47;0.38;;;27.10;99.90;;;;;;5018845;28;20270;-78
2021/06/27 10:50:11;;;;;;;0.30;0.20;;;27.10;99.90;;;;;;5020040;28;20195;-79
2021/06/27 10:52:57;;;;;;;0.68;0.68;;;27.00;99.90;;;;;;5003638;28;20191;-79
2021/06/27 10:55:26;;;;;;;0.85;0.50;;;27.00;99.90;;;;;;5019896;28;20195;-79
2021/06/27 10:57:56;;;;;;;0.40;0.30;;;27.20;99.90;;;;;;5019095;28;20180;-79
2021/06/27 11:00:22;;;;;;;0.65;0.40;;;27.20;99.90;;;;;;5020261;28;20231;-79
2021/06/27 11:02:48;;;;;;;0.38;0.35;;;27.30;99.90;;;;;;4987427;28;20187;-79
2021/06/27 11:05:29;;;;;;;0.20;0.20;;;27.20;99.90;;;;;;5001304;28;20189;-79
2021/06/27 11:07:55;;;;;;;0.32;0.30;;;27.30;99.90;;;;;;4980098;28;20204;-79
2021/06/27 11:10:23;;;;;;;0.50;0.50;;;27.40;99.90;;;;;;4964188;28;20200;-79
2021/06/27 11:12:58;;;;;;;0.40;0.35;;;27.40;99.90;;;;;;4979523;28;20387;-79
2021/06/27 11:15:24;;;;;;;0.40;0.30;;;27.30;99.90;;;;;;4990674;28;20172;-80
2021/06/27 11:17:54;;;;;;;0.65;0.57;;;27.30;99.90;;;;;;5016226;28;20215;-80
2021/06/27 11:20:20;;;;;;;0.43;0.40;;;27.30;99.90;;;;;;4999515;28;20254;-80
2021/06/27 11:22:49;;;;;;;0.30;0.30;;;27.30;99.90;;;;;;5000111;28;20604;-78
2021/06/27 11:25:37;;;;;;;0.70;0.50;;;27.30;99.90;;;;;;5000084;28;20244;-78
2021/06/27 11:28:21;;;;;;;0.63;0.30;;;27.30;99.90;;;;;;5015865;28;20271;-79
2021/06/27 11:31:22;;;;;;;0.20;0.17;;;27.20;99.90;;;;;;5015620;28;20189;-78
2021/06/27 11:34:20;;;;;;;0.52;0.30;;;27.30;99.90;;;;;;4999146;28;20176;-79
2021/06/27 11:36:49;;;;;;;0.28;0.28;;;27.40;99.90;;;;;;4989643;28;20193;-78
2021/06/27 11:39:55;;;;;;;0.90;0.40;;;27.50;99.90;;;;;;4961938;28;20224;-78
2021/06/27 11:42:27;;;;;;;0.50;0.35;;;27.60;99.90;;;;;;4993315;28;20211;-80
2021/06/27 11:45:05;;;;;;;0.50;0.40;;;27.50;99.90;;;;;;4977825;28;20251;-79
2021/06/27 11:47:37;;;;;;;0.40;0.35;;;27.60;99.90;;;;;;4992432;28;20208;-79
2021/06/27 11:50:32;;;;;;;0.30;0.30;;;27.60;99.90;;;;;;4996898;28;20203;-79
2021/06/27 11:53:07;;;;;;;0.50;0.38;;;27.70;99.90;;;;;;5014257;28;20183;-79
2021/06/27 11:55:38;;;;;;;0.60;0.30;;;27.80;99.90;;;;;;4997820;28;20670;-80
2021/06/27 11:58:04;;;;;;;0.40;0.40;;;27.70;99.90;;;;;;4993744;28;20176;-78
2021/06/27 12:00:45;;;;;;;0.50;0.50;;;27.60;99.90;;;;;;4994089;28;20584;-79
2021/06/27 12:03:12;;;;;;;0.95;0.50;;;27.60;99.90;;;;;;4994501;28;20597;-79
2021/06/27 12:05:38;;;;;;;0.75;0.20;;;27.50;99.90;;;;;;5012835;28;20551;-80
2021/06/27 12:08:10;;;;;;;1.40;0.40;;;27.60;99.90;;;;;;5011917;28;20259;-79
2021/06/27 12:10:37;;;;;;;0.50;0.40;;;27.50;99.90;;;;;;4996144;28;20212;-81
2021/06/27 12:13:04;;;;;;;0.52;0.40;;;27.50;99.90;;;;;;5012426;28;20165;-80
2021/06/27 12:15:32;;;;;;;0.32;0.30;;;27.60;99.90;;;;;;5013426;28;20665;-79
2021/06/27 12:18:27;;;;;;;0.45;0.45;;;27.70;99.90;;;;;;4995717;28;20212;-78
2021/06/27 12:21:13;;;;;;;0.60;0.40;;;27.70;99.90;;;;;;4992301;28;20684;-77
2021/06/27 12:23:42;;;;;;;0.57;0.35;;;27.70;99.90;;;;;;4994059;28;20667;-79
2021/06/27 12:26:18;;;;;;;0.38;0.20;;;27.60;99.90;;;;;;4995744;28;20176;-78
2021/06/27 12:28:49;;;;;;;0.90;0.50;;;27.60;99.90;;;;;;5009316;28;20203;-78
2021/06/27 12:31:18;;;;;;;0.30;0.30;;;27.60;99.90;;;;;;5010578;28;20230;-78
2021/06/27 12:33:51;;;;;;;0.47;0.30;;;27.60;99.90;;;;;;4995060;28;20655;-78
2021/06/27 12:36:25;;;;;;;1.02;0.40;;;27.80;99.90;;;;;;4994146;28;20183;-78
2021/06/27 12:38:54;;;;;;;0.30;0.30;;;27.90;99.90;;;;;;4994629;28;20310;-78
2021/06/27 12:41:21;;;;;;;0.70;0.40;;;28.00;99.90;;;;;;4985399;28;20223;-78
2021/06/27 12:43:55;;;;;;;0.35;0.35;;;27.90;99.90;;;;;;5001635;28;20260;-78
2021/06/27 12:46:30;;;;;;;0.45;0.32;;;27.90;99.90;;;;;;4990411;28;20176;-79
2021/06/27 12:49:02;;;;;;;0.40;0.32;;;28.00;99.90;;;;;;5002904;28;20209;-79
2021/06/27 12:51:32;;;;;;;0.32;0.32;;;27.80;99.90;;;;;;4984192;28;20207;-77